Time;durP1;ratioP1;P1;durP2;ratioP2;P2;SDS_P1;SDS_P2;PMS_P1;PMS_P2;Temp;Humidity;BMP_temperature;BMP_pressure;BME280_temperature;BME280_humidity;BME280_pressure;Samples;Min_cycle;Max_cycle;Signal;HPM_P1;HPM_P2
2023/02/06 00:00:22;;;;;;;40.30;15.70;;;6.50;99.90;;;;;;5072252;28;20458;-76
2023/02/06 00:02:51;;;;;;;39.28;14.38;;;6.50;99.90;;;;;;5072253;28;20093;-76
2023/02/06 00:05:17;;;;;;;35.60;14.52;;;6.50;99.90;;;;;;5072133;28;20085;-75
2023/02/06 00:07:42;;;;;;;46.75;14.90;;;6.40;99.90;;;;;;5069960;28;20032;-74
2023/02/06 00:10:08;;;;;;;44.63;15.15;;;6.30;99.90;;;;;;5071046;28;20051;-75
2023/02/06 00:12:35;;;;;;;36.85;15.05;;;6.40;99.90;;;;;;5072301;28;20024;-75
2023/02/06 00:15:00;;;;;;;33.13;12.32;;;6.40;99.90;;;;;;5071970;28;20033;-76
2023/02/06 00:17:26;;;;;;;37.88;13.90;;;6.40;99.90;;;;;;5072088;28;20043;-76
2023/02/06 00:19:52;;;;;;;39.08;13.63;;;6.50;99.90;;;;;;5071692;28;20443;-75
2023/02/06 00:22:17;;;;;;;37.75;15.73;;;6.50;99.90;;;;;;5071780;28;20450;-76
2023/02/06 00:24:43;;;;;;;31.58;13.38;;;6.50;99.90;;;;;;5072029;28;20021;-75
2023/02/06 00:27:08;;;;;;;37.15;15.75;;;6.40;99.90;;;;;;5071423;28;20377;-75
2023/02/06 00:29:34;;;;;;;30.00;13.65;;;6.50;99.90;;;;;;5072035;28;20060;-76
2023/02/06 00:32:00;;;;;;;36.42;13.88;;;6.50;99.90;;;;;;5070371;28;20086;-75
2023/02/06 00:34:25;;;;;;;41.70;15.63;;;6.40;99.90;;;;;;5069929;28;20020;-75
2023/02/06 00:36:51;;;;;;;35.97;14.52;;;5.90;99.90;;;;;;5071811;28;20450;-75
2023/02/06 00:39:18;;;;;;;36.17;14.18;;;5.90;99.90;;;;;;5070285;28;20108;-75
2023/02/06 00:41:44;;;;;;;33.10;14.25;;;5.80;99.90;;;;;;5071086;28;20032;-75
2023/02/06 00:44:09;;;;;;;43.80;15.75;;;5.90;99.90;;;;;;5070314;28;20058;-75
2023/02/06 00:46:35;;;;;;;29.95;14.32;;;6.00;99.90;;;;;;5070351;28;20462;-76
2023/02/06 00:49:01;;;;;;;34.03;14.52;;;6.10;99.90;;;;;;5070665;28;20035;-75
2023/02/06 00:51:27;;;;;;;42.67;15.32;;;6.10;99.90;;;;;;5071247;28;20064;-75
2023/02/06 00:53:52;;;;;;;36.10;14.65;;;6.00;99.90;;;;;;5071662;28;20111;-75
2023/02/06 00:56:18;;;;;;;33.70;14.10;;;6.10;99.90;;;;;;5074572;28;20032;-75
2023/02/06 00:58:44;;;;;;;41.40;16.98;;;6.10;99.90;;;;;;5071377;28;20032;-76
2023/02/06 01:01:09;;;;;;;39.72;16.45;;;6.00;99.90;;;;;;5071317;28;20027;-75
2023/02/06 01:03:35;;;;;;;43.42;16.85;;;6.10;99.90;;;;;;5072217;28;20035;-75
2023/02/06 01:06:01;;;;;;;38.95;17.23;;;6.10;99.90;;;;;;5075333;28;20040;-74
2023/02/06 01:08:27;;;;;;;52.40;18.50;;;6.30;99.90;;;;;;5076030;28;20029;-76
2023/02/06 01:10:52;;;;;;;41.47;17.73;;;6.10;99.90;;;;;;5070149;28;20028;-76
2023/02/06 01:13:18;;;;;;;41.60;17.13;;;6.10;99.90;;;;;;5071322;28;20032;-75
2023/02/06 01:15:43;;;;;;;50.55;20.00;;;6.10;99.90;;;;;;5071703;28;20039;-75
2023/02/06 01:18:09;;;;;;;48.20;18.77;;;6.10;99.90;;;;;;5070630;28;20477;-75
2023/02/06 01:20:35;;;;;;;47.45;19.48;;;6.10;99.90;;;;;;5073458;28;20024;-77
2023/02/06 01:23:02;;;;;;;42.42;18.52;;;6.10;99.90;;;;;;5075449;28;20115;-74
2023/02/06 01:25:27;;;;;;;46.05;18.90;;;6.20;99.90;;;;;;5070629;28;20048;-75
2023/02/06 01:27:53;;;;;;;42.58;18.48;;;6.10;99.90;;;;;;5070668;28;20040;-75
2023/02/06 01:30:20;;;;;;;53.15;19.38;;;6.10;99.90;;;;;;5070835;28;20044;-75
2023/02/06 01:32:45;;;;;;;42.80;18.63;;;6.10;99.90;;;;;;5072089;28;20063;-75
2023/02/06 01:35:12;;;;;;;41.45;17.02;;;6.00;99.90;;;;;;5072112;28;20546;-74
2023/02/06 01:37:38;;;;;;;44.65;17.60;;;6.10;99.90;;;;;;5072321;28;20113;-76
2023/02/06 01:40:07;;;;;;;43.22;17.75;;;6.00;99.90;;;;;;5071219;28;20024;-75
2023/02/06 01:42:34;;;;;;;35.72;17.38;;;6.10;99.90;;;;;;5071351;28;20037;-75
2023/02/06 01:45:25;;;;;;;43.53;17.73;;;6.10;99.90;;;;;;5070875;28;20422;-78
2023/02/06 01:47:56;;;;;;;37.17;16.80;;;5.90;99.90;;;;;;5070336;28;20032;-76
2023/02/06 01:50:22;;;;;;;38.33;16.98;;;5.70;99.90;;;;;;5069112;28;20033;-76
2023/02/06 01:52:48;;;;;;;40.60;17.48;;;5.90;99.90;;;;;;5069192;28;20086;-77
2023/02/06 01:55:15;;;;;;;34.47;15.18;;;6.00;99.90;;;;;;5070375;28;20028;-76
2023/02/06 01:57:40;;;;;;;35.83;15.45;;;6.10;99.90;;;;;;5069914;28;20474;-75
2023/02/06 02:00:09;;;;;;;34.58;15.80;;;6.10;99.90;;;;;;5069472;28;20040;-76
2023/02/06 02:02:38;;;;;;;33.78;16.52;;;6.10;99.90;;;;;;5071778;28;20416;-77
2023/02/06 02:05:07;;;;;;;31.65;16.25;;;6.00;99.90;;;;;;5071410;28;20099;-76
2023/02/06 02:07:36;;;;;;;34.80;15.77;;;6.00;99.90;;;;;;5071591;28;20059;-76
2023/02/06 02:10:04;;;;;;;27.75;13.88;;;6.00;99.90;;;;;;5071276;28;20021;-76
2023/02/06 02:12:29;;;;;;;30.53;12.37;;;6.00;99.90;;;;;;5069433;28;20029;-75
2023/02/06 02:14:56;;;;;;;23.08;11.68;;;6.00;99.90;;;;;;5070336;28;20036;-74
2023/02/06 02:17:54;;;;;;;22.08;11.40;;;6.00;99.90;;;;;;5069625;28;20029;-75
2023/02/06 02:20:23;;;;;;;27.45;11.93;;;5.90;99.90;;;;;;5070440;28;20063;-76
2023/02/06 02:23:07;;;;;;;27.20;11.95;;;5.90;99.90;;;;;;5069044;28;20043;-78
2023/02/06 02:25:44;;;;;;;26.90;12.20;;;5.80;99.90;;;;;;5069075;28;20020;-76
2023/02/06 02:28:48;;;;;;;27.58;11.55;;;5.50;99.90;;;;;;5068850;28;20462;-76
2023/02/06 02:31:51;;;;;;;26.40;12.18;;;5.50;99.90;;;;;;5071338;28;20032;-77
2023/02/06 02:34:48;;;;;;;28.10;12.88;;;5.60;99.90;;;;;;5073598;28;20052;-77
2023/02/06 02:37:22;;;;;;;21.70;11.18;;;5.60;99.90;;;;;;5093856;28;20024;-75
2023/02/06 02:40:10;;;;;;;26.60;12.85;;;5.60;99.90;;;;;;5094640;28;20023;-75
2023/02/06 02:42:45;;;;;;;27.75;12.85;;;5.60;99.90;;;;;;5092831;28;20042;-74
2023/02/06 02:45:17;;;;;;;28.27;13.07;;;5.60;99.90;;;;;;5093792;28;20568;-75
2023/02/06 02:48:04;;;;;;;26.35;14.20;;;5.60;99.90;;;;;;5093570;28;20033;-75
2023/02/06 02:50:31;;;;;;;29.27;12.27;;;5.50;99.90;;;;;;5093617;28;20258;-76
2023/02/06 02:52:58;;;;;;;27.70;12.90;;;5.50;99.90;;;;;;5093711;28;20127;-76
2023/02/06 02:55:24;;;;;;;25.10;11.75;;;5.40;99.90;;;;;;5093605;28;20339;-76
2023/02/06 02:57:54;;;;;;;26.95;13.50;;;5.50;99.90;;;;;;5093902;28;20111;-74
2023/02/06 03:00:23;;;;;;;31.05;12.38;;;5.50;99.90;;;;;;5092778;28;20043;-74
2023/02/06 03:02:51;;;;;;;28.65;13.15;;;5.50;99.90;;;;;;5093536;28;20028;-76
2023/02/06 03:05:21;;;;;;;26.67;13.52;;;5.30;99.90;;;;;;5093416;28;20036;-75
2023/02/06 03:08:06;;;;;;;25.60;12.00;;;5.40;99.90;;;;;;5093163;28;20032;-75
2023/02/06 03:11:02;;;;;;;25.75;12.50;;;5.50;99.90;;;;;;5093636;28;20116;-74
2023/02/06 03:13:34;;;;;;;27.25;11.75;;;5.50;99.90;;;;;;5092986;28;20040;-75
2023/02/06 03:15:59;;;;;;;26.02;12.05;;;5.40;99.90;;;;;;5092582;28;20031;-75
2023/02/06 03:18:39;;;;;;;24.42;12.43;;;5.40;99.90;;;;;;5093106;28;20355;-75
2023/02/06 03:21:06;;;;;;;33.20;12.60;;;5.40;99.90;;;;;;5091906;28;20391;-75
2023/02/06 03:23:37;;;;;;;25.52;12.60;;;5.30;99.90;;;;;;5093028;28;20032;-75
2023/02/06 03:26:06;;;;;;;27.42;12.32;;;5.20;99.90;;;;;;5091782;28;20024;-75
2023/02/06 03:28:36;;;;;;;28.25;12.10;;;5.20;99.90;;;;;;5091773;28;20043;-74
2023/02/06 03:31:06;;;;;;;25.60;12.05;;;5.00;99.90;;;;;;5093468;28;20488;-75
2023/02/06 03:33:41;;;;;;;23.30;10.40;;;5.00;99.90;;;;;;5091709;28;20132;-75
2023/02/06 03:36:09;;;;;;;27.00;11.98;;;5.10;99.90;;;;;;5092760;28;20099;-75
2023/02/06 03:38:35;;;;;;;21.90;11.40;;;5.10;99.90;;;;;;5091683;28;20032;-74
2023/02/06 03:41:03;;;;;;;25.95;11.77;;;5.20;99.90;;;;;;5091362;28;20047;-74
2023/02/06 03:43:29;;;;;;;32.13;12.50;;;5.20;99.90;;;;;;5092669;28;20036;-76
2023/02/06 03:46:01;;;;;;;26.92;12.13;;;5.20;99.90;;;;;;5092931;28;20122;-75
2023/02/06 03:48:34;;;;;;;25.75;11.52;;;5.00;99.90;;;;;;5092348;28;20036;-75
2023/02/06 03:51:06;;;;;;;25.17;11.68;;;5.00;99.90;;;;;;5092575;28;20523;-76
2023/02/06 03:53:34;;;;;;;29.55;12.02;;;5.00;99.90;;;;;;5091507;28;20445;-75
2023/02/06 03:56:05;;;;;;;;;;;4.70;99.90;;;;;;5091868;28;20358;-75
2023/02/06 03:58:31;;;;;;;28.40;11.68;;;4.70;99.90;;;;;;5092301;28;20294;-75
2023/02/06 04:00:57;;;;;;;24.90;11.43;;;4.80;99.90;;;;;;5092948;28;20107;-74
2023/02/06 04:03:23;;;;;;;25.90;11.73;;;4.80;99.90;;;;;;5091383;28;20542;-74
2023/02/06 04:05:49;;;;;;;32.00;11.48;;;4.50;99.90;;;;;;5091151;28;20040;-74
2023/02/06 04:08:14;;;;;;;25.20;11.18;;;4.40;99.90;;;;;;5091941;28;20085;-74
2023/02/06 04:10:40;;;;;;;26.65;12.85;;;4.40;99.90;;;;;;5091040;28;20489;-75
2023/02/06 04:13:05;;;;;;;27.52;12.45;;;4.50;99.90;;;;;;5092339;28;20036;-75
2023/02/06 04:15:31;;;;;;;31.65;13.63;;;4.50;99.90;;;;;;5092040;28;20052;-76
2023/02/06 04:17:57;;;;;;;31.73;13.50;;;4.40;99.90;;;;;;5091889;28;20047;-74
2023/02/06 04:20:22;;;;;;;30.45;13.00;;;4.50;99.90;;;;;;5091787;28;20134;-75
2023/02/06 04:22:49;;;;;;;30.60;13.68;;;4.60;99.90;;;;;;5091706;28;20024;-76
2023/02/06 04:25:14;;;;;;;38.08;14.93;;;4.30;99.90;;;;;;5091905;28;20070;-74
2023/02/06 04:27:40;;;;;;;43.65;16.27;;;4.50;99.90;;;;;;5090837;28;20048;-75
2023/02/06 04:30:06;;;;;;;32.88;13.82;;;4.40;99.90;;;;;;5091691;28;20028;-74
2023/02/06 04:32:32;;;;;;;45.90;16.95;;;4.60;99.90;;;;;;5090529;28;20119;-75
2023/02/06 04:34:58;;;;;;;41.00;15.63;;;4.50;99.90;;;;;;5091548;28;20110;-75
2023/02/06 04:37:23;;;;;;;34.38;15.82;;;4.60;99.90;;;;;;5091484;28;20402;-75
2023/02/06 04:39:49;;;;;;;39.53;15.93;;;4.70;99.90;;;;;;5092289;28;20024;-74
2023/02/06 04:42:14;;;;;;;34.45;14.98;;;4.50;99.90;;;;;;5090739;28;20123;-75
2023/02/06 04:44:40;;;;;;;34.20;15.30;;;4.30;99.90;;;;;;5090277;28;20067;-75
2023/02/06 04:47:06;;;;;;;32.03;15.07;;;4.40;99.90;;;;;;5090211;28;20055;-74
2023/02/06 04:49:31;;;;;;;38.45;15.90;;;4.40;99.90;;;;;;5091201;28;20473;-74
2023/02/06 04:51:57;;;;;;;40.40;16.23;;;4.60;99.90;;;;;;5090541;28;20123;-74
2023/02/06 04:54:23;;;;;;;44.70;15.50;;;4.60;99.90;;;;;;5089665;28;20025;-73
2023/02/06 04:56:49;;;;;;;32.63;14.52;;;4.60;99.90;;;;;;5091319;28;20032;-76
2023/02/06 04:59:15;;;;;;;44.53;14.90;;;4.60;99.90;;;;;;5090321;28;20063;-74
2023/02/06 05:01:40;;;;;;;42.72;15.35;;;4.60;99.90;;;;;;5091046;28;20039;-74
2023/02/06 05:04:06;;;;;;;32.65;14.15;;;4.40;99.90;;;;;;5091335;28;20024;-74
2023/02/06 05:06:32;;;;;;;37.58;14.18;;;4.40;99.90;;;;;;5090860;28;20044;-75
2023/02/06 05:08:58;;;;;;;30.60;13.02;;;4.50;99.90;;;;;;5090994;28;20051;-74
2023/02/06 05:11:24;;;;;;;35.97;14.15;;;4.40;99.90;;;;;;5089855;28;20032;-74
2023/02/06 05:13:50;;;;;;;36.13;13.45;;;4.30;99.90;;;;;;5090879;28;20036;-75
2023/02/06 05:16:16;;;;;;;36.10;14.95;;;4.30;99.90;;;;;;5090812;28;20107;-75
2023/02/06 05:18:43;;;;;;;40.75;14.18;;;4.40;99.90;;;;;;5090584;28;20046;-75
2023/02/06 05:21:10;;;;;;;44.22;14.98;;;4.40;99.90;;;;;;5090916;28;20117;-76
2023/02/06 05:23:36;;;;;;;37.15;13.68;;;4.40;99.90;;;;;;5091147;28;20046;-75
2023/02/06 05:26:02;;;;;;;45.38;13.85;;;4.30;99.90;;;;;;5090659;28;20036;-75
2023/02/06 05:28:29;;;;;;;35.55;13.40;;;4.10;99.90;;;;;;5090591;28;20071;-75
2023/02/06 05:30:55;;;;;;;42.97;13.90;;;4.00;99.90;;;;;;5091397;28;20058;-74
2023/02/06 05:33:21;;;;;;;34.22;12.38;;;4.10;99.90;;;;;;5089649;28;20032;-74
2023/02/06 05:35:47;;;;;;;35.75;14.35;;;4.20;99.90;;;;;;5090707;28;20036;-75
2023/02/06 05:38:13;;;;;;;40.08;15.13;;;4.20;99.90;;;;;;5090536;28;20048;-74
2023/02/06 05:40:39;;;;;;;34.60;13.77;;;4.30;99.90;;;;;;5090755;28;20028;-73
2023/02/06 05:43:04;;;;;;;36.13;13.70;;;4.40;99.90;;;;;;5091028;28;20016;-75
2023/02/06 05:45:30;;;;;;;41.80;14.18;;;4.50;99.90;;;;;;5090930;28;20497;-75
2023/02/06 05:47:56;;;;;;;52.00;14.35;;;4.40;99.90;;;;;;5090692;28;20053;-74
2023/02/06 05:50:22;;;;;;;29.58;10.82;;;4.60;99.90;;;;;;5090705;28;20052;-73
2023/02/06 05:52:48;;;;;;;30.17;10.73;;;4.60;99.90;;;;;;5090364;28;20032;-75
2023/02/06 05:55:15;;;;;;;28.38;10.43;;;4.70;99.90;;;;;;5090731;28;20324;-74
2023/02/06 05:57:42;;;;;;;33.75;11.48;;;4.70;99.90;;;;;;5090915;28;20027;-75
2023/02/06 06:00:09;;;;;;;33.28;10.52;;;4.70;99.90;;;;;;5090542;28;20032;-76
2023/02/06 06:02:35;;;;;;;36.17;10.02;;;4.60;99.90;;;;;;5090609;28;20062;-76
2023/02/06 06:05:00;;;;;;;34.22;11.65;;;4.70;99.90;;;;;;5092706;28;20059;-75
2023/02/06 06:07:26;;;;;;;31.85;11.63;;;4.70;99.90;;;;;;5093184;28;20093;-75
2023/02/06 06:09:52;;;;;;;30.88;11.45;;;4.60;99.90;;;;;;5094646;28;20035;-76
2023/02/06 06:12:17;;;;;;;33.67;11.48;;;4.60;99.90;;;;;;5094512;28;20055;-76
2023/02/06 06:14:43;;;;;;;36.88;11.45;;;4.50;99.90;;;;;;5094688;28;20051;-76
2023/02/06 06:17:08;;;;;;;35.50;12.60;;;4.30;99.90;;;;;;5094242;28;20373;-76
2023/02/06 06:19:34;;;;;;;34.47;11.30;;;4.30;99.90;;;;;;5081842;28;20043;-76
2023/02/06 06:22:00;;;;;;;31.58;10.75;;;4.30;99.90;;;;;;5055004;28;20025;-77
2023/02/06 06:24:26;;;;;;;34.42;11.48;;;4.20;99.90;;;;;;5054874;28;20451;-78
2023/02/06 06:26:52;;;;;;;29.67;10.70;;;4.10;99.90;;;;;;5054132;28;20057;-78
2023/02/06 06:29:18;;;;;;;31.08;11.27;;;4.20;99.90;;;;;;5054049;28;20116;-76
2023/02/06 06:31:44;;;;;;;30.88;11.35;;;4.30;99.90;;;;;;5054053;28;20110;-77
2023/02/06 06:34:09;;;;;;;36.30;11.02;;;4.30;99.90;;;;;;5053721;28;20439;-77
2023/02/06 06:36:35;;;;;;;38.70;12.40;;;4.30;99.90;;;;;;5053725;28;20040;-74
2023/02/06 06:39:01;;;;;;;30.88;12.60;;;4.40;99.90;;;;;;5054046;28;20561;-75
2023/02/06 06:41:27;;;;;;;29.45;11.10;;;4.40;99.90;;;;;;5053025;28;20390;-77
2023/02/06 06:43:56;;;;;;;33.55;12.60;;;4.50;99.90;;;;;;5052728;28;20332;-76
2023/02/06 06:46:22;;;;;;;32.60;11.25;;;4.30;99.90;;;;;;5052673;28;20021;-74
2023/02/06 06:48:48;;;;;;;34.55;11.65;;;4.40;99.90;;;;;;5053053;28;20032;-74
2023/02/06 06:51:13;;;;;;;34.33;11.90;;;4.40;99.90;;;;;;5053914;28;20037;-75
2023/02/06 06:53:39;;;;;;;34.30;11.18;;;4.40;99.90;;;;;;5052779;28;20040;-76
2023/02/06 06:56:06;;;;;;;38.70;12.05;;;4.40;99.90;;;;;;5053574;28;20422;-76
2023/02/06 06:58:32;;;;;;;32.90;11.63;;;4.50;99.90;;;;;;5053634;28;20132;-79
2023/02/06 07:00:58;;;;;;;36.45;12.00;;;4.50;99.90;;;;;;5053935;28;20050;-77
2023/02/06 07:03:24;;;;;;;43.28;12.15;;;4.50;99.90;;;;;;5053484;28;20463;-79
2023/02/06 07:05:50;;;;;;;33.40;12.23;;;4.50;99.90;;;;;;5053516;28;20033;-78
2023/02/06 07:08:16;;;;;;;36.72;13.13;;;4.50;99.90;;;;;;5052901;28;20371;-76
2023/02/06 07:10:41;;;;;;;32.70;11.90;;;4.60;99.90;;;;;;5052775;28;20075;-79
2023/02/06 07:13:07;;;;;;;40.17;12.82;;;4.70;99.90;;;;;;5054101;28;20106;-81
2023/02/06 07:15:32;;;;;;;45.47;14.48;;;4.60;99.90;;;;;;5052427;28;20190;-84
2023/02/06 07:17:58;;;;;;;49.28;14.05;;;4.60;99.90;;;;;;5068763;28;20032;-79
2023/02/06 07:20:24;;;;;;;47.55;13.90;;;4.70;99.90;;;;;;5055673;28;20040;-83
2023/02/06 07:22:49;;;;;;;41.10;12.57;;;4.70;99.90;;;;;;5053513;28;20436;-86
2023/02/06 07:25:17;;;;;;;35.22;13.45;;;4.60;99.90;;;;;;5055142;28;20021;-77
2023/02/06 07:27:42;;;;;;;42.45;14.32;;;4.50;99.90;;;;;;5052043;28;20056;-78
2023/02/06 07:30:09;;;;;;;43.35;14.85;;;4.50;99.90;;;;;;5052927;28;20040;-79
2023/02/06 07:32:35;;;;;;;48.60;15.73;;;4.60;99.90;;;;;;5053034;28;20047;-76
2023/02/06 07:35:01;;;;;;;45.42;16.15;;;4.50;99.90;;;;;;5052875;28;20029;-79
2023/02/06 07:37:27;;;;;;;44.33;14.32;;;4.80;99.90;;;;;;5052585;28;20036;-79
2023/02/06 07:39:52;;;;;;;35.28;13.82;;;4.60;99.90;;;;;;5055024;28;20029;-78
2023/02/06 07:42:18;;;;;;;43.67;13.68;;;4.60;99.90;;;;;;5053482;28;20029;-79
2023/02/06 07:44:44;;;;;;;34.28;13.27;;;4.50;99.90;;;;;;5054523;28;20037;-81
2023/02/06 07:47:10;;;;;;;34.95;13.05;;;4.60;99.90;;;;;;5054696;28;20071;-79
2023/02/06 07:49:35;;;;;;;42.97;14.70;;;4.50;99.90;;;;;;5054034;28;20358;-79
2023/02/06 07:52:02;;;;;;;45.60;14.48;;;4.50;99.90;;;;;;5054569;28;20051;-80
2023/02/06 07:54:27;;;;;;;48.05;15.13;;;4.50;99.90;;;;;;5054286;28;20029;-81
2023/02/06 07:56:53;;;;;;;44.75;15.65;;;4.60;99.90;;;;;;5053239;28;20044;-79
2023/02/06 07:59:19;;;;;;;46.47;14.88;;;4.70;99.90;;;;;;5054090;28;20470;-76
2023/02/06 08:01:44;;;;;;;51.85;15.55;;;4.70;99.90;;;;;;5050950;28;20400;-76
2023/02/06 08:04:10;;;;;;;50.00;15.43;;;4.70;99.90;;;;;;5052030;28;20082;-79
2023/02/06 08:06:40;;;;;;;47.85;13.95;;;4.70;99.90;;;;;;5052394;28;20494;-77
2023/02/06 08:09:05;;;;;;;44.75;14.23;;;4.80;99.90;;;;;;5051803;28;20443;-78
2023/02/06 08:11:31;;;;;;;41.10;13.98;;;4.70;99.90;;;;;;5052270;28;20051;-75
2023/02/06 08:13:57;;;;;;;38.80;13.27;;;4.80;99.90;;;;;;5050701;28;20130;-74
2023/02/06 08:16:23;;;;;;;44.45;13.77;;;4.70;99.90;;;;;;5051923;28;20025;-76
2023/02/06 08:18:49;;;;;;;49.88;13.50;;;4.60;99.90;;;;;;5051062;28;20025;-75
2023/02/06 08:21:19;;;;;;;36.60;11.68;;;4.50;99.90;;;;;;5051907;28;20458;-80
2023/02/06 08:23:45;;;;;;;36.80;11.55;;;4.80;99.90;;;;;;5050999;28;20086;-74
2023/02/06 08:26:16;;;;;;;32.13;11.93;;;4.80;99.90;;;;;;5051734;28;20028;-81
2023/02/06 08:28:44;;;;;;;44.28;11.88;;;4.80;99.90;;;;;;5050738;28;20036;-79
2023/02/06 08:31:13;;;;;;;46.22;13.35;;;4.80;99.90;;;;;;5050479;28;20473;-75
2023/02/06 08:33:40;;;;;;;38.00;12.07;;;4.80;99.90;;;;;;5052016;28;20128;-80
2023/02/06 08:36:06;;;;;;;51.42;17.33;;;4.80;99.90;;;;;;5050414;28;20040;-79
2023/02/06 08:38:32;;;;;;;32.65;13.10;;;4.80;99.90;;;;;;5050609;28;20063;-76
2023/02/06 08:40:57;;;;;;;33.65;12.02;;;4.90;99.90;;;;;;5051327;28;20124;-78
2023/02/06 08:43:23;;;;;;;34.30;11.20;;;5.10;99.90;;;;;;5050531;28;20029;-74
2023/02/06 08:45:50;;;;;;;34.78;11.07;;;5.20;99.90;;;;;;5051571;28;20029;-82
2023/02/06 08:48:16;;;;;;;39.17;12.20;;;5.30;99.90;;;;;;5050464;28;20056;-82
2023/02/06 08:50:42;;;;;;;42.58;12.95;;;5.10;99.90;;;;;;5050851;28;20033;-79
2023/02/06 08:53:08;;;;;;;41.35;13.13;;;5.10;99.90;;;;;;5050964;28;20037;-76
2023/02/06 08:55:34;;;;;;;39.20;12.07;;;5.20;99.90;;;;;;5049876;28;20135;-81
2023/02/06 08:57:59;;;;;;;39.88;13.32;;;5.50;99.90;;;;;;5050325;28;20106;-79
2023/02/06 09:00:25;;;;;;;42.35;13.50;;;5.60;99.90;;;;;;5050400;28;20471;-75
2023/02/06 09:02:52;;;;;;;45.88;12.95;;;5.50;99.90;;;;;;5049864;28;20053;-77
2023/02/06 09:05:18;;;;;;;35.20;13.05;;;5.60;99.90;;;;;;5051059;28;20090;-84
2023/02/06 09:07:44;;;;;;;35.92;12.20;;;5.60;99.90;;;;;;5049914;28;20040;-84
2023/02/06 09:10:10;;;;;;;33.72;11.55;;;5.80;99.90;;;;;;5051041;28;20100;-80
2023/02/06 09:12:35;;;;;;;38.83;12.38;;;5.80;99.90;;;;;;5050196;28;20025;-76
2023/02/06 09:15:02;;;;;;;40.20;12.40;;;5.80;99.90;;;;;;5051382;28;20356;-75
2023/02/06 09:17:30;;;;;;;45.30;12.02;;;5.90;99.90;;;;;;5050734;28;20039;-77
2023/02/06 09:19:56;;;;;;;40.72;12.88;;;6.00;99.90;;;;;;5050499;28;20021;-76
2023/02/06 09:22:22;;;;;;;43.53;13.32;;;6.00;99.90;;;;;;5050299;28;20131;-77
2023/02/06 09:24:47;;;;;;;35.17;12.18;;;5.80;99.90;;;;;;5050967;28;20060;-76
2023/02/06 09:27:14;;;;;;;41.35;13.00;;;6.10;99.90;;;;;;5050285;28;20045;-75
2023/02/06 09:29:39;;;;;;;37.22;13.07;;;6.30;99.90;;;;;;5050644;28;20033;-74
2023/02/06 09:32:05;;;;;;;34.55;12.50;;;6.60;99.90;;;;;;5050685;28;20037;-80
2023/02/06 09:34:31;;;;;;;42.25;13.93;;;6.70;99.90;;;;;;5051417;28;20078;-83
2023/02/06 09:36:57;;;;;;;40.80;13.38;;;6.80;99.90;;;;;;5050374;28;20021;-86
2023/02/06 09:39:23;;;;;;;31.83;11.18;;;7.00;99.90;;;;;;5051423;28;20454;-84
2023/02/06 09:41:57;;;;;;;38.20;12.85;;;6.90;99.80;;;;;;5051566;28;20029;-82
2023/02/06 09:44:32;;;;;;;44.15;12.68;;;7.10;99.90;;;;;;5050644;28;20028;-83
2023/02/06 09:46:58;;;;;;;36.67;13.30;;;7.10;99.90;;;;;;5049361;28;20033;-84
2023/02/06 09:49:43;;;;;;;32.28;11.20;;;6.90;99.60;;;;;;5050840;28;20362;-81
2023/02/06 09:52:30;;;;;;;36.05;11.38;;;6.90;99.70;;;;;;5050323;28;20071;-74
2023/02/06 09:55:10;;;;;;;33.92;10.82;;;6.90;99.90;;;;;;5049473;28;20048;-78
2023/02/06 09:58:00;;;;;;;35.17;12.25;;;7.00;99.60;;;;;;5049127;28;20402;-75
2023/02/06 10:00:52;;;;;;;38.55;12.40;;;7.30;99.90;;;;;;5048915;28;20068;-75
2023/02/06 10:03:56;;;;;;;32.78;10.77;;;7.40;99.60;;;;;;5050436;28;20033;-81
2023/02/06 10:06:40;;;;;;;35.58;10.90;;;7.70;99.70;;;;;;5050322;28;20068;-78
2023/02/06 10:09:21;;;;;;;34.67;10.25;;;7.70;99.20;;;;;;5049572;28;20451;-79
2023/02/06 10:12:00;;;;;;;35.40;10.95;;;8.10;99.20;;;;;;5050516;28;20067;-79
2023/02/06 10:14:47;;;;;;;41.00;10.50;;;8.00;99.00;;;;;;5049120;28;20033;-81
2023/02/06 10:17:24;;;;;;;36.33;11.27;;;8.10;98.70;;;;;;5050647;28;20064;-78
2023/02/06 10:19:53;;;;;;;31.13;9.68;;;8.40;98.60;;;;;;5050723;28;20057;-80
2023/02/06 10:22:44;;;;;;;34.42;9.90;;;8.40;98.40;;;;;;5049221;28;20048;-79
2023/02/06 10:25:22;;;;;;;31.52;8.98;;;8.50;98.10;;;;;;5050357;28;20451;-78
2023/02/06 10:27:56;;;;;;;27.42;9.50;;;8.70;97.90;;;;;;5050168;28;20132;-76
2023/02/06 10:30:45;;;;;;;30.98;8.90;;;8.60;97.70;;;;;;5048658;28;20052;-78
2023/02/06 10:33:51;;;;;;;30.42;9.70;;;8.90;97.60;;;;;;5050192;28;20442;-78
2023/02/06 10:36:30;;;;;;;35.83;10.65;;;8.90;97.60;;;;;;5042418;28;20040;-77
2023/02/06 10:39:42;;;;;;;31.77;9.55;;;9.10;97.30;;;;;;5049157;28;20029;-77
2023/02/06 10:42:35;;;;;;;26.25;9.07;;;9.30;97.30;;;;;;5026329;28;20029;-73
2023/02/06 10:45:24;;;;;;;26.98;9.20;;;9.60;97.00;;;;;;5050112;28;20493;-74
2023/02/06 10:47:56;;;;;;;35.15;11.30;;;9.30;96.30;;;;;;5048410;28;20048;-75
2023/02/06 10:50:43;;;;;;;25.48;7.47;;;9.40;95.90;;;;;;5049934;28;20036;-74
2023/02/06 10:53:29;;;;;;;35.10;9.60;;;9.70;96.40;;;;;;5053908;28;20025;-76
2023/02/06 10:56:09;;;;;;;27.80;8.20;;;10.50;95.90;;;;;;5053494;28;20455;-77
2023/02/06 10:58:52;;;;;;;27.10;8.00;;;11.50;94.90;;;;;;5053456;28;20080;-75
2023/02/06 11:01:19;;;;;;;32.20;8.40;;;12.20;94.40;;;;;;5053266;28;20032;-75
2023/02/06 11:03:53;;;;;;;33.15;11.32;;;12.50;93.80;;;;;;5053826;28;20021;-79
2023/02/06 11:06:21;;;;;;;27.88;8.18;;;13.00;92.60;;;;;;5053857;28;20032;-80
2023/02/06 11:08:47;;;;;;;25.50;7.90;;;13.70;92.40;;;;;;5052315;28;20037;-79
2023/02/06 11:11:28;;;;;;;29.42;8.00;;;14.00;91.70;;;;;;5053166;28;20029;-78
2023/02/06 11:14:21;;;;;;;21.73;7.45;;;14.10;91.10;;;;;;5051996;28;20036;-77
2023/02/06 11:16:47;;;;;;;20.52;6.82;;;14.80;90.40;;;;;;5053087;28;20116;-77
2023/02/06 11:19:18;;;;;;;25.80;7.93;;;15.40;88.50;;;;;;5051866;28;20025;-76
2023/02/06 11:21:49;;;;;;;21.42;7.30;;;15.60;87.40;;;;;;5053729;28;20515;-81
2023/02/06 11:24:17;;;;;;;23.88;7.20;;;15.40;86.80;;;;;;5052333;28;20136;-80
2023/02/06 11:26:51;;;;;;;26.88;8.07;;;14.20;85.90;;;;;;5053187;28;20057;-79
2023/02/06 11:29:23;;;;;;;18.98;6.90;;;14.10;87.20;;;;;;5053486;28;20123;-79
2023/02/06 11:32:01;;;;;;;23.45;7.30;;;13.20;87.70;;;;;;5053094;28;20419;-75
2023/02/06 11:34:33;;;;;;;24.77;8.13;;;13.20;89.30;;;;;;5053033;28;20501;-76
2023/02/06 11:37:35;;;;;;;24.70;7.40;;;13.10;88.50;;;;;;5053201;28;20063;-80
2023/02/06 11:40:16;;;;;;;22.70;7.05;;;13.00;88.90;;;;;;5051581;28;20045;-77
2023/02/06 11:42:43;;;;;;;31.92;7.90;;;12.80;90.00;;;;;;5053006;28;20036;-83
2023/02/06 11:45:24;;;;;;;25.57;7.97;;;12.70;89.40;;;;;;5042187;28;20526;-76
2023/02/06 11:47:51;;;;;;;20.10;7.07;;;12.00;90.10;;;;;;5051164;28;20057;-78
2023/02/06 11:50:27;;;;;;;21.15;6.85;;;12.70;90.60;;;;;;5051377;28;20130;-75
2023/02/06 11:52:59;;;;;;;21.98;7.22;;;12.90;89.50;;;;;;5052444;28;20025;-74
2023/02/06 11:55:26;;;;;;;28.38;6.88;;;12.80;88.90;;;;;;5052451;28;20025;-72
2023/02/06 11:58:28;;;;;;;41.58;7.20;;;12.30;88.80;;;;;;5052779;28;20094;-74
2023/02/06 12:01:04;;;;;;;23.92;6.22;;;11.70;90.00;;;;;;5030495;28;20045;-79
2023/02/06 12:03:48;;;;;;;32.85;6.55;;;11.20;90.50;;;;;;5050033;28;20375;-78
2023/02/06 12:06:28;;;;;;;25.55;7.78;;;11.10;91.00;;;;;;5051273;28;20037;-79
2023/02/06 12:08:57;;;;;;;29.67;6.57;;;10.90;91.50;;;;;;5052194;28;20043;-78
2023/02/06 12:11:29;;;;;;;32.40;7.45;;;10.90;91.30;;;;;;5052249;28;20119;-80
2023/02/06 12:14:04;;;;;;;31.45;7.40;;;11.00;91.40;;;;;;5052441;28;20037;-81
2023/02/06 12:16:33;;;;;;;26.25;6.35;;;11.10;91.20;;;;;;5051797;28;20029;-72
2023/02/06 12:18:59;;;;;;;28.90;6.13;;;11.10;91.40;;;;;;5052460;28;20017;-75
2023/02/06 12:21:48;;;;;;;28.83;7.50;;;10.80;91.30;;;;;;5052123;28;20087;-76
2023/02/06 12:24:30;;;;;;;21.92;5.90;;;10.80;91.60;;;;;;5052063;28;20033;-74
2023/02/06 12:26:59;;;;;;;19.33;5.32;;;10.60;91.70;;;;;;5051638;28;20433;-74
2023/02/06 12:29:32;;;;;;;22.08;5.78;;;10.40;91.90;;;;;;5051589;28;20048;-74
2023/02/06 12:32:07;;;;;;;27.48;6.32;;;10.60;92.10;;;;;;5051517;28;20044;-72
2023/02/06 12:34:48;;;;;;;22.55;6.00;;;10.50;91.70;;;;;;5051343;28;20048;-74
2023/02/06 12:37:20;;;;;;;36.60;7.15;;;10.40;91.80;;;;;;5050655;28;20104;-71
2023/02/06 12:39:46;;;;;;;30.48;9.80;;;10.20;91.90;;;;;;5050816;28;20511;-73
2023/02/06 12:42:38;;;;;;;21.08;6.90;;;10.20;92.10;;;;;;5050280;28;20041;-74
2023/02/06 12:45:06;;;;;;;16.45;4.63;;;10.10;91.90;;;;;;5051148;28;20035;-74
2023/02/06 12:47:40;;;;;;;21.48;6.00;;;10.10;91.80;;;;;;5051199;28;20029;-74
2023/02/06 12:50:26;;;;;;;21.50;5.18;;;9.90;92.20;;;;;;5051372;28;20482;-74
2023/02/06 12:53:05;;;;;;;29.52;5.90;;;9.70;92.30;;;;;;5051656;28;20036;-81